Lindolfo Collor, Brazil
Current Conditions -  °F | °C
As of 12:00 AM on Wednesday 28 Jan 2015 (Local Time) from SBCO Reporting Station
Few Clouds Few Clouds  
Wind Chill: 75°   Ceiling: Unl
Heat Index: 75°   Visibility: 6mi
Dew Point: 70°   Wind: 3mph
Humidity: 83%   Direction: 30°NNE
Pressure: 29.85"   Gusts: NA
Location:  29.6°S, 51.21°W
Report Text: SBCO 280200Z 03003KT 340V060 9999 FEW040TCU 24/21 Q1011
Loading
Personal Weather Stations






























Interactive Weather Map New forecast layout! Learn more

10-Day Weather Forecast

Advertisements
Track Severe Weather on mobile